Time;durP1;ratioP1;P1;durP2;ratioP2;P2;SDS_P1;SDS_P2;PMS_P1;PMS_P2;Temp;Humidity;BMP_temperature;BMP_pressure;BME280_temperature;BME280_humidity;BME280_pressure;Samples;Min_cycle;Max_cycle;Signal;HPM_P1;HPM_P2
2022/09/23 00:01:45;;;;;;;13.65;11.10;;;13.60;99.90;;;;;;4906298;29;20039;-94
2022/09/23 00:04:12;;;;;;;12.07;10.88;;;13.60;99.90;;;;;;4906381;29;20036;-93
2022/09/23 00:06:40;;;;;;;11.50;10.55;;;13.50;99.90;;;;;;4906517;29;20031;-94
2022/09/23 00:09:07;;;;;;;11.30;10.00;;;13.50;99.90;;;;;;4906230;29;20087;-93
2022/09/23 00:11:34;;;;;;;10.35;9.57;;;13.50;99.90;;;;;;4922163;29;20054;-94
2022/09/23 00:14:01;;;;;;;9.70;8.98;;;13.50;99.90;;;;;;4906272;29;20027;-94
2022/09/23 00:16:55;;;;;;;10.30;9.30;;;13.50;99.90;;;;;;4905928;29;20115;-94
2022/09/23 00:19:26;;;;;;;9.60;8.90;;;13.40;99.90;;;;;;4906317;29;20031;-94
2022/09/23 00:21:53;;;;;;;9.32;8.73;;;13.40;99.90;;;;;;4906090;29;20036;-94
2022/09/23 00:24:19;;;;;;;9.70;8.88;;;13.40;99.90;;;;;;4905594;29;20040;-93
2022/09/23 00:26:46;;;;;;;9.10;8.43;;;13.40;99.90;;;;;;4905870;29;20032;-94
2022/09/23 00:29:16;;;;;;;9.40;8.63;;;13.30;99.90;;;;;;4921356;29;20063;-93
2022/09/23 00:31:43;;;;;;;8.88;8.23;;;13.30;99.90;;;;;;4905865;29;20055;-93
2022/09/23 00:34:11;;;;;;;9.07;8.32;;;13.30;99.90;;;;;;4913152;29;20055;-94
2022/09/23 00:36:39;;;;;;;9.23;8.30;;;13.20;99.90;;;;;;4941128;29;20031;-94
2022/09/23 00:39:06;;;;;;;8.73;7.93;;;13.20;99.90;;;;;;4940603;29;20027;-93
2022/09/23 00:41:34;;;;;;;10.05;8.50;;;13.10;99.90;;;;;;4924591;29;20118;-93
2022/09/23 00:44:02;;;;;;;8.63;7.90;;;13.00;99.90;;;;;;4940372;29;20027;-93
2022/09/23 00:46:44;;;;;;;9.25;8.07;;;13.00;99.90;;;;;;4924148;29;20039;-93
2022/09/23 00:49:26;;;;;;;8.32;7.65;;;13.00;99.90;;;;;;4924387;29;20032;-94
2022/09/23 00:52:05;;;;;;;8.65;7.90;;;12.90;99.90;;;;;;4924461;29;20027;-94
2022/09/23 00:54:33;;;;;;;7.93;7.32;;;12.90;99.90;;;;;;4940325;29;20035;-93
2022/09/23 00:57:04;;;;;;;7.85;7.35;;;12.90;99.90;;;;;;4924709;29;20062;-94
2022/09/23 00:59:32;;;;;;;8.30;7.50;;;12.80;99.90;;;;;;4940027;29;20063;-94
2022/09/23 01:02:01;;;;;;;8.43;7.65;;;12.80;99.90;;;;;;4927447;29;20038;-94
2022/09/23 01:04:28;;;;;;;8.15;7.43;;;12.80;99.90;;;;;;4947544;29;20035;-94
2022/09/23 01:06:55;;;;;;;8.85;7.57;;;12.70;99.90;;;;;;4923921;29;20469;-93
2022/09/23 01:09:24;;;;;;;9.88;7.18;;;12.80;99.90;;;;;;4924043;29;20031;-94
2022/09/23 01:12:05;;;;;;;8.85;7.40;;;12.70;99.90;;;;;;4939812;29;20086;-94
2022/09/23 01:14:39;;;;;;;7.70;7.20;;;12.70;99.90;;;;;;4924063;29;20031;-94
2022/09/23 01:17:09;;;;;;;7.63;7.00;;;12.70;99.90;;;;;;4939917;29;20039;-94
2022/09/23 01:19:36;;;;;;;7.30;6.80;;;12.70;99.90;;;;;;4923476;29;20071;-94
2022/09/23 01:22:13;;;;;;;7.00;6.60;;;12.70;99.90;;;;;;4939565;29;20059;-93
2022/09/23 01:24:49;;;;;;;7.25;6.78;;;12.70;99.90;;;;;;4923948;29;20110;-93
2022/09/23 01:27:41;;;;;;;7.30;6.80;;;12.70;99.90;;;;;;4939213;28;20061;-94
2022/09/23 01:30:26;;;;;;;8.43;7.20;;;12.70;99.90;;;;;;4923804;29;20027;-93
2022/09/23 01:33:19;;;;;;;8.02;7.32;;;12.70;99.90;;;;;;4923748;29;20454;-94
2022/09/23 01:36:21;;;;;;;7.63;6.97;;;12.70;99.90;;;;;;4923849;29;20124;-93
2022/09/23 01:39:21;;;;;;;15.18;8.18;;;12.70;99.90;;;;;;4923967;29;20027;-93
2022/09/23 01:42:20;;;;;;;7.60;7.20;;;12.70;99.90;;;;;;4939657;29;20031;-94
2022/09/23 01:45:16;;;;;;;7.50;6.90;;;12.70;99.90;;;;;;4939302;28;20131;-93
2022/09/23 01:48:12;;;;;;;7.60;7.10;;;12.70;99.90;;;;;;4939183;29;20035;-94
2022/09/23 01:50:56;;;;;;;8.13;7.53;;;12.70;99.90;;;;;;4939549;29;20036;-94
2022/09/23 01:53:36;;;;;;;7.78;7.13;;;12.70;99.90;;;;;;4924077;29;20059;-95
2022/09/23 01:56:45;;;;;;;7.35;6.85;;;12.70;99.90;;;;;;4939580;28;20048;-94
2022/09/23 01:59:12;;;;;;;7.20;6.50;;;12.70;99.90;;;;;;4939847;29;20036;-94
2022/09/23 02:01:45;;;;;;;7.50;7.00;;;12.70;99.90;;;;;;4941175;29;20027;-94
2022/09/23 02:04:24;;;;;;;7.13;6.63;;;12.70;99.90;;;;;;4940119;29;20055;-94
2022/09/23 02:07:00;;;;;;;7.43;6.88;;;12.60;99.90;;;;;;4939464;29;20038;-94
2022/09/23 02:09:47;;;;;;;8.05;7.45;;;12.60;99.90;;;;;;4939578;29;20032;-94
2022/09/23 02:12:19;;;;;;;7.57;6.95;;;12.60;99.90;;;;;;4924418;29;20035;-94
2022/09/23 02:14:58;;;;;;;6.90;6.47;;;12.60;99.90;;;;;;4940050;29;20039;-94
2022/09/23 02:17:46;;;;;;;7.25;6.85;;;12.60;99.90;;;;;;4923496;29;20131;-95
2022/09/23 02:20:19;;;;;;;7.45;6.95;;;12.60;99.90;;;;;;4939327;29;20082;-93
2022/09/23 02:22:53;;;;;;;7.10;6.70;;;12.50;99.90;;;;;;4939645;29;20485;-94
2022/09/23 02:25:28;;;;;;;7.40;6.80;;;12.50;99.90;;;;;;4939553;29;20094;-92
2022/09/23 02:28:07;;;;;;;7.13;6.53;;;12.50;99.90;;;;;;4924969;29;20058;-94
2022/09/23 02:30:46;;;;;;;7.15;6.50;;;12.50;99.90;;;;;;4923292;29;20063;-94
2022/09/23 02:33:38;;;;;;;6.88;6.47;;;12.50;99.90;;;;;;4938803;29;20035;-93
2022/09/23 02:36:19;;;;;;;6.75;6.35;;;12.40;99.90;;;;;;4924790;29;20055;-94
2022/09/23 02:38:52;;;;;;;6.60;6.10;;;12.40;99.90;;;;;;4934100;28;20027;-93
2022/09/23 02:41:28;;;;;;;7.28;6.85;;;12.40;99.90;;;;;;4927679;29;20098;-94
2022/09/23 02:44:03;;;;;;;6.60;6.10;;;12.40;99.90;;;;;;4944108;29;20051;-94
2022/09/23 02:46:34;;;;;;;6.55;6.25;;;12.40;99.90;;;;;;4943613;29;20401;-93
2022/09/23 02:49:12;;;;;;;6.90;6.40;;;12.40;99.90;;;;;;4927290;29;20093;-94
2022/09/23 02:51:40;;;;;;;6.65;6.20;;;12.40;99.90;;;;;;4943353;29;20027;-93
2022/09/23 02:54:13;;;;;;;6.93;6.53;;;12.40;99.90;;;;;;4927400;29;20038;-93
2022/09/23 02:56:41;;;;;;;6.90;6.30;;;12.40;99.90;;;;;;4943047;29;20125;-93
2022/09/23 02:59:09;;;;;;;6.63;6.18;;;12.40;99.90;;;;;;4927144;29;20028;-93
2022/09/23 03:02:04;;;;;;;7.53;6.82;;;12.40;99.90;;;;;;4927031;29;20061;-94
2022/09/23 03:05:04;;;;;;;6.60;6.22;;;12.40;99.90;;;;;;4927914;29;20094;-93
2022/09/23 03:07:58;;;;;;;6.50;6.18;;;12.40;99.90;;;;;;4927245;29;20059;-94
2022/09/23 03:10:54;;;;;;;7.27;6.77;;;12.40;99.90;;;;;;4943167;29;20027;-94
2022/09/23 03:14:05;;;;;;;6.93;6.50;;;12.50;99.90;;;;;;4940943;29;20271;-93
2022/09/23 03:16:57;;;;;;;6.70;6.30;;;12.50;99.90;;;;;;4943148;29;20480;-93
2022/09/23 03:19:47;;;;;;;6.93;6.50;;;12.40;99.90;;;;;;4941930;29;20027;-95
2022/09/23 03:22:26;;;;;;;6.82;6.18;;;12.40;99.90;;;;;;4942189;29;20110;-93
2022/09/23 03:24:59;;;;;;;6.82;6.40;;;12.50;99.90;;;;;;4925902;29;20039;-94
2022/09/23 03:27:31;;;;;;;6.75;6.20;;;12.50;99.90;;;;;;4925691;29;20035;-94
2022/09/23 03:30:04;;;;;;;6.85;6.32;;;12.50;99.90;;;;;;4943129;28;20035;-94
2022/09/23 03:32:32;;;;;;;6.97;6.30;;;12.50;99.90;;;;;;4926116;29;20114;-93
2022/09/23 03:35:05;;;;;;;6.82;6.43;;;12.50;99.90;;;;;;4925358;29;20049;-92
2022/09/23 03:38:02;;;;;;;6.43;6.03;;;12.50;99.90;;;;;;4941335;29;20398;-93
2022/09/23 03:40:40;;;;;;;6.50;6.10;;;12.50;99.90;;;;;;4940965;29;20066;-91
2022/09/23 03:43:12;;;;;;;6.78;6.18;;;12.60;99.90;;;;;;4941362;29;20031;-92
2022/09/23 03:45:41;;;;;;;6.43;6.10;;;12.60;99.90;;;;;;4925200;29;20031;-92
2022/09/23 03:48:08;;;;;;;6.63;6.20;;;12.60;99.90;;;;;;4941317;29;20545;-92
2022/09/23 03:50:35;;;;;;;6.68;6.18;;;12.60;99.90;;;;;;4925851;29;20054;-91
2022/09/23 03:53:02;;;;;;;6.30;6.00;;;12.60;99.90;;;;;;4925640;29;20024;-92
2022/09/23 03:55:38;;;;;;;6.32;6.03;;;12.60;99.90;;;;;;4941317;29;20062;-92
2022/09/23 04:02:16;;;;;;;6.43;6.03;;;12.60;99.90;;;;;;4928631;29;20036;-92
2022/09/23 04:04:49;;;;;;;6.10;5.80;;;12.50;99.90;;;;;;4942230;29;20041;-92
2022/09/23 04:07:18;;;;;;;6.20;5.80;;;12.50;99.90;;;;;;4944443;29;20090;-92
2022/09/23 04:30:56;;;;;;;5.85;5.45;;;12.30;99.90;;;;;;4987043;28;20057;-94
2022/09/23 04:33:40;;;;;;;5.75;5.35;;;12.30;99.90;;;;;;4969028;28;20114;-94
2022/09/23 04:36:12;;;;;;;6.35;5.93;;;12.30;99.90;;;;;;4950975;28;20049;-95
2022/09/23 04:43:06;;;;;;;5.97;5.50;;;12.40;99.90;;;;;;5118715;23;20086;-94
2022/09/23 04:46:12;;;;;;;6.53;5.68;;;12.40;99.90;;;;;;4967780;29;20122;-95
2022/09/23 04:48:59;;;;;;;5.63;5.32;;;12.50;99.90;;;;;;4950288;29;20039;-93
2022/09/23 04:51:35;;;;;;;5.97;5.40;;;12.60;99.90;;;;;;4927304;29;20031;-94
2022/09/23 04:54:10;;;;;;;6.00;5.70;;;12.60;99.90;;;;;;4937120;29;20032;-93
2022/09/23 04:56:38;;;;;;;6.57;6.03;;;12.70;99.90;;;;;;4931715;29;20051;-92
2022/09/23 04:59:05;;;;;;;6.18;5.70;;;12.80;99.90;;;;;;4925164;29;20429;-94
2022/09/23 05:01:50;;;;;;;6.30;5.80;;;12.80;99.90;;;;;;4939458;29;20031;-93
2022/09/23 05:04:17;;;;;;;6.63;6.13;;;12.90;99.90;;;;;;4923186;29;20023;-94
2022/09/23 05:06:44;;;;;;;6.47;5.90;;;13.00;99.90;;;;;;4940816;29;20035;-93
2022/09/23 05:09:16;;;;;;;5.93;5.55;;;13.10;99.90;;;;;;4924465;29;20035;-93
2022/09/23 05:11:44;;;;;;;6.45;5.80;;;13.10;99.90;;;;;;4923973;29;20035;-93
2022/09/23 05:14:14;;;;;;;6.57;6.13;;;13.20;99.90;;;;;;4939340;29;20219;-94
2022/09/23 05:16:41;;;;;;;6.80;6.30;;;13.40;99.90;;;;;;4942708;29;20175;-94
2022/09/23 05:19:07;;;;;;;6.60;6.10;;;13.70;99.90;;;;;;4927367;29;20023;-94
2022/09/23 05:21:35;;;;;;;7.25;6.63;;;14.00;99.90;;;;;;4929076;28;20055;-94
2022/09/23 05:24:02;;;;;;;8.05;7.40;;;14.30;99.90;;;;;;4963717;28;20074;-93
2022/09/23 05:26:39;;;;;;;9.07;8.48;;;14.60;99.90;;;;;;4960145;28;20023;-92
2022/09/23 05:29:06;;;;;;;9.82;8.90;;;15.20;99.90;;;;;;4960047;28;20037;-94
2022/09/23 05:31:33;;;;;;;10.23;9.45;;;15.80;99.90;;;;;;4960223;28;20114;-93
2022/09/23 05:34:02;;;;;;;11.63;10.70;;;16.70;99.90;;;;;;4958837;28;20030;-92
2022/09/23 05:36:32;;;;;;;13.95;12.70;;;17.40;99.90;;;;;;4958494;28;20051;-93
2022/09/23 05:38:59;;;;;;;14.40;13.30;;;18.10;99.90;;;;;;4958159;28;20546;-93
2022/09/23 05:41:26;;;;;;;13.32;12.43;;;18.70;99.90;;;;;;4957981;28;20045;-92
2022/09/23 05:43:54;;;;;;;13.68;12.48;;;18.90;99.90;;;;;;4958212;28;20053;-95
2022/09/23 05:46:27;;;;;;;13.98;12.98;;;19.30;99.90;;;;;;4958281;28;20384;-92
2022/09/23 05:48:56;;;;;;;13.52;12.65;;;19.60;99.90;;;;;;4958150;28;20057;-94
2022/09/23 05:51:25;;;;;;;14.73;13.50;;;19.60;99.90;;;;;;4958278;28;20022;-94
2022/09/23 05:53:54;;;;;;;13.77;12.77;;;20.10;99.90;;;;;;4958989;28;20046;-92
2022/09/23 05:56:24;;;;;;;14.52;13.38;;;20.10;99.90;;;;;;4942054;28;20034;-94
2022/09/23 05:58:55;;;;;;;14.02;13.07;;;20.50;99.90;;;;;;4958052;28;20031;-92
2022/09/23 06:01:24;;;;;;;14.80;13.50;;;20.50;99.90;;;;;;4958298;28;20508;-92
2022/09/23 06:03:56;;;;;;;14.13;13.23;;;20.60;99.90;;;;;;4942063;28;20480;-94
2022/09/23 06:06:33;;;;;;;14.85;13.52;;;20.40;99.90;;;;;;4958045;28;20030;-91
2022/09/23 06:09:12;;;;;;;14.35;13.40;;;20.60;99.90;;;;;;4958328;28;20034;-96
2022/09/23 06:11:40;;;;;;;14.93;13.95;;;20.90;99.90;;;;;;4957817;28;20564;-94
2022/09/23 06:14:11;;;;;;;14.20;13.27;;;21.10;99.90;;;;;;4959146;28;20056;-92
2022/09/23 06:16:38;;;;;;;15.15;14.02;;;21.00;99.90;;;;;;4962453;28;20093;-92
2022/09/23 06:19:04;;;;;;;15.52;14.05;;;21.40;99.90;;;;;;4961992;28;20035;-91
2022/09/23 06:21:34;;;;;;;16.02;14.52;;;21.70;99.90;;;;;;4961654;28;20035;-92
2022/09/23 06:24:01;;;;;;;15.23;14.35;;;22.00;99.90;;;;;;4961863;28;20027;-93
2022/09/23 06:26:31;;;;;;;15.23;14.13;;;22.30;99.90;;;;;;4968598;28;20042;-91
2022/09/23 06:29:02;;;;;;;15.60;14.32;;;22.50;99.90;;;;;;4964304;28;20027;-92
2022/09/23 06:31:28;;;;;;;15.52;14.43;;;23.30;99.90;;;;;;4961830;28;20031;-92
2022/09/23 06:33:55;;;;;;;15.13;14.25;;;23.70;99.90;;;;;;4961523;28;20114;-92
2022/09/23 06:36:22;;;;;;;16.08;14.77;;;23.60;99.90;;;;;;4961386;28;20039;-94
2022/09/23 06:38:49;;;;;;;15.45;14.30;;;24.00;99.90;;;;;;4961529;28;20055;-93
2022/09/23 06:41:16;;;;;;;16.25;14.65;;;23.90;99.90;;;;;;4961401;28;20078;-92
2022/09/23 06:43:43;;;;;;;16.25;14.95;;;24.00;99.90;;;;;;4944714;29;20382;-94
2022/09/23 06:46:14;;;;;;;15.95;14.77;;;24.10;99.90;;;;;;4942645;29;20121;-92
2022/09/23 06:48:45;;;;;;;15.50;14.52;;;24.00;99.90;;;;;;4942363;29;20114;-94
2022/09/23 06:51:18;;;;;;;15.30;14.07;;;23.60;99.90;;;;;;4942204;29;20031;-94
2022/09/23 06:53:49;;;;;;;15.98;14.63;;;23.10;99.90;;;;;;4942085;29;20027;-94
2022/09/23 06:56:18;;;;;;;15.07;13.98;;;22.80;99.90;;;;;;4942128;29;20039;-94
2022/09/23 06:58:45;;;;;;;16.83;15.38;;;22.60;99.90;;;;;;4943408;29;20088;-94
2022/09/23 07:01:18;;;;;;;15.43;14.05;;;22.40;99.90;;;;;;4941736;29;20036;-95
2022/09/23 07:03:47;;;;;;;16.33;14.85;;;22.70;99.90;;;;;;4942145;29;20042;-94
2022/09/23 07:06:13;;;;;;;15.90;14.35;;;23.10;99.90;;;;;;4942049;29;20031;-94
2022/09/23 07:08:43;;;;;;;15.43;14.30;;;23.50;99.90;;;;;;4942531;29;20039;-93
2022/09/23 07:11:47;;;;;;;14.63;13.60;;;23.20;99.90;;;;;;4941778;29;20468;-94
2022/09/23 07:14:14;;;;;;;15.05;14.02;;;22.70;99.90;;;;;;4926064;29;20374;-91
2022/09/23 07:17:18;;;;;;;14.95;13.95;;;22.50;99.90;;;;;;4942293;29;20043;-92
2022/09/23 07:19:44;;;;;;;15.90;14.35;;;22.80;99.90;;;;;;4926118;29;20027;-91
2022/09/23 07:22:11;;;;;;;15.70;14.68;;;22.50;99.90;;;;;;4941802;29;20034;-92
2022/09/23 07:24:37;;;;;;;15.70;14.02;;;23.00;99.90;;;;;;4941970;29;20118;-92
2022/09/23 07:27:10;;;;;;;15.10;13.77;;;23.00;99.90;;;;;;4941086;29;20031;-91
2022/09/23 07:29:53;;;;;;;15.10;13.80;;;23.00;99.90;;;;;;4957250;28;20039;-91
2022/09/23 07:32:22;;;;;;;14.07;13.05;;;22.60;99.90;;;;;;4941338;29;20494;-93
2022/09/23 07:34:50;;;;;;;14.75;13.73;;;22.50;99.90;;;;;;4941463;29;20566;-91
2022/09/23 07:37:17;;;;;;;16.27;14.65;;;22.60;99.90;;;;;;4941415;29;20039;-91
2022/09/23 07:40:18;;;;;;;15.48;14.30;;;22.90;99.90;;;;;;4941347;29;20464;-92
2022/09/23 07:42:44;;;;;;;14.38;13.40;;;22.80;99.90;;;;;;4946697;29;20083;-91
2022/09/23 07:45:11;;;;;;;15.23;14.32;;;22.40;99.90;;;;;;4941183;29;20537;-92
2022/09/23 07:48:00;;;;;;;14.90;14.02;;;22.50;99.90;;;;;;4941155;29;20038;-91
2022/09/23 07:50:39;;;;;;;15.10;14.10;;;22.40;99.90;;;;;;4941990;29;20027;-91
2022/09/23 07:53:07;;;;;;;14.80;13.88;;;22.70;99.90;;;;;;4942431;29;20031;-94
2022/09/23 07:55:35;;;;;;;15.05;14.15;;;22.60;99.90;;;;;;4942885;28;20041;-92
2022/09/23 07:58:01;;;;;;;15.35;14.30;;;22.60;99.90;;;;;;4944897;29;20038;-91
2022/09/23 08:00:28;;;;;;;15.00;13.88;;;22.70;99.90;;;;;;4951551;29;20027;-91
2022/09/23 08:02:55;;;;;;;15.40;14.38;;;22.80;99.90;;;;;;4950050;29;20031;-92
2022/09/23 08:05:21;;;;;;;15.43;14.50;;;23.10;99.90;;;;;;4943310;29;20035;-91
2022/09/23 08:07:48;;;;;;;16.23;14.75;;;23.00;99.90;;;;;;4942896;29;20042;-91
2022/09/23 08:10:21;;;;;;;15.30;14.50;;;22.80;99.90;;;;;;4945332;29;20555;-92
2022/09/23 08:12:53;;;;;;;15.90;14.88;;;22.80;99.90;;;;;;4942995;29;20093;-84
2022/09/23 08:15:20;;;;;;;15.70;14.90;;;22.60;99.90;;;;;;4943077;29;20035;-87
2022/09/23 08:17:50;;;;;;;16.50;15.50;;;22.60;99.90;;;;;;4942803;29;20031;-86
2022/09/23 08:20:43;;;;;;;16.48;15.48;;;22.30;99.90;;;;;;4942602;29;20023;-85
2022/09/23 08:23:03;;;;;;;16.08;15.00;;;22.40;99.90;;;;;;4942564;29;20031;-89
2022/09/23 08:25:31;;;;;;;15.45;14.65;;;22.40;99.90;;;;;;4942781;29;20023;-85
2022/09/23 08:27:58;;;;;;;15.55;14.65;;;22.40;99.90;;;;;;4942481;29;20023;-87
2022/09/23 08:30:28;;;;;;;15.48;14.68;;;22.50;99.90;;;;;;4942252;29;20119;-88
2022/09/23 08:32:58;;;;;;;16.10;15.30;;;22.40;99.90;;;;;;4941646;29;20061;-88
2022/09/23 08:35:24;;;;;;;15.43;14.63;;;22.40;99.90;;;;;;4940261;29;20067;-89
2022/09/23 08:37:51;;;;;;;16.50;15.20;;;22.10;99.90;;;;;;4940431;29;20087;-93
2022/09/23 08:40:18;;;;;;;15.13;14.40;;;22.30;99.90;;;;;;4941382;29;20035;-93
2022/09/23 08:42:45;;;;;;;16.23;15.20;;;22.30;99.90;;;;;;4940028;28;20047;-91
2022/09/23 08:45:21;;;;;;;15.80;15.00;;;22.20;99.90;;;;;;4940263;29;20039;-91
2022/09/23 08:48:00;;;;;;;15.15;14.40;;;22.30;99.90;;;;;;4940412;29;20023;-93
2022/09/23 08:50:40;;;;;;;15.60;14.82;;;22.30;99.90;;;;;;4940470;29;20086;-92
2022/09/23 08:53:23;;;;;;;15.20;14.50;;;22.10;99.90;;;;;;4939911;29;20023;-91
2022/09/23 08:55:52;;;;;;;16.13;15.23;;;22.00;99.90;;;;;;4939713;29;20126;-93
2022/09/23 08:58:54;;;;;;;15.68;14.80;;;21.90;99.90;;;;;;4939760;29;20069;-91
2022/09/23 09:01:33;;;;;;;15.52;14.63;;;22.10;99.90;;;;;;4939676;29;20031;-90
2022/09/23 09:04:16;;;;;;;15.45;14.55;;;22.10;99.90;;;;;;4939673;29;20121;-91
2022/09/23 09:06:58;;;;;;;16.23;15.20;;;21.90;99.90;;;;;;4939600;29;20027;-89
2022/09/23 09:09:28;;;;;;;15.48;14.50;;;22.00;99.90;;;;;;4939905;29;20042;-88
2022/09/23 09:12:06;;;;;;;16.40;15.15;;;22.10;99.90;;;;;;4946825;29;20381;-89
2022/09/23 09:14:52;;;;;;;15.38;14.45;;;22.10;99.90;;;;;;4948322;29;20035;-89
2022/09/23 09:17:32;;;;;;;15.65;14.55;;;22.10;99.90;;;;;;4944741;29;20049;-86
2022/09/23 09:20:18;;;;;;;15.52;14.63;;;22.10;99.90;;;;;;4941988;29;20343;-87
2022/09/23 09:22:50;;;;;;;15.65;14.77;;;22.50;99.90;;;;;;4941749;29;20105;-87
2022/09/23 09:25:32;;;;;;;15.18;14.43;;;22.70;99.90;;;;;;4941910;29;20031;-87
2022/09/23 09:28:46;;;;;;;15.40;14.43;;;22.30;99.90;;;;;;4941674;29;20037;-86
2022/09/23 09:31:24;;;;;;;16.45;15.40;;;22.10;99.90;;;;;;4919258;29;20036;-86
2022/09/23 09:34:23;;;;;;;16.30;15.50;;;22.20;99.90;;;;;;4934955;29;20138;-80
2022/09/23 09:37:09;;;;;;;16.02;15.13;;;22.00;99.90;;;;;;4918899;29;20055;-84
2022/09/23 09:39:36;;;;;;;15.75;14.60;;;22.10;99.90;;;;;;4919102;29;20402;-88
2022/09/23 09:42:04;;;;;;;15.52;14.70;;;22.00;99.90;;;;;;4919025;29;20043;-88
2022/09/23 09:44:43;;;;;;;15.68;14.88;;;21.90;99.90;;;;;;4917957;29;20367;-78
2022/09/23 09:47:19;;;;;;;16.02;15.10;;;22.20;99.90;;;;;;4917661;29;20525;-78
2022/09/23 09:50:12;;;;;;;15.95;15.05;;;22.50;99.90;;;;;;4917304;29;20103;-77
2022/09/23 09:52:41;;;;;;;17.30;16.00;;;22.80;99.90;;;;;;4917927;29;20036;-76
2022/09/23 09:55:13;;;;;;;15.80;15.00;;;22.30;99.90;;;;;;4917240;29;20079;-79
2022/09/23 09:57:49;;;;;;;16.00;14.90;;;22.40;99.90;;;;;;4915365;29;20032;-78
2022/09/23 10:00:29;;;;;;;16.60;15.50;;;22.40;99.90;;;;;;4932402;29;20091;-92
2022/09/23 10:03:12;;;;;;;15.95;15.05;;;22.30;99.90;;;;;;4923093;29;20023;-89
2022/09/23 10:05:51;;;;;;;16.20;15.30;;;22.30;99.90;;;;;;4923382;29;20035;-88
2022/09/23 10:08:23;;;;;;;15.63;14.70;;;22.40;99.90;;;;;;4922979;29;20071;-88
2022/09/23 10:11:03;;;;;;;15.77;14.98;;;22.40;99.90;;;;;;4922979;29;20035;-88
2022/09/23 10:13:31;;;;;;;15.80;15.00;;;22.00;99.90;;;;;;4938618;29;20050;-87
2022/09/23 10:16:02;;;;;;;16.08;15.18;;;21.90;99.90;;;;;;4923000;29;20097;-88
2022/09/23 10:18:37;;;;;;;16.52;15.63;;;22.10;99.90;;;;;;4956573;29;20039;-88
2022/09/23 10:21:20;;;;;;;16.52;15.52;;;22.30;99.90;;;;;;4938746;29;20031;-87
2022/09/23 10:23:51;;;;;;;16.27;15.25;;;22.50;99.90;;;;;;4938782;29;20039;-88
2022/09/23 10:26:31;;;;;;;16.02;15.15;;;22.10;99.90;;;;;;4923208;29;20059;-88
2022/09/23 10:29:03;;;;;;;16.20;15.30;;;22.10;99.90;;;;;;4923015;29;20038;-88
2022/09/23 10:31:34;;;;;;;16.48;15.38;;;22.20;99.90;;;;;;4922932;29;20028;-87
2022/09/23 10:34:18;;;;;;;16.92;15.68;;;22.40;99.90;;;;;;4922811;29;20045;-88
2022/09/23 10:37:10;;;;;;;15.90;14.98;;;22.10;99.90;;;;;;4922645;29;20039;-88
2022/09/23 10:48:58;;;;;;;15.93;15.10;;;22.20;99.90;;;;;;4938570;29;20035;-88
2022/09/23 10:51:37;;;;;;;16.27;15.40;;;22.00;99.90;;;;;;4938607;29;20058;-88
2022/09/23 10:54:20;;;;;;;15.88;15.00;;;22.10;99.90;;;;;;4938514;29;20035;-88
2022/09/23 10:57:36;;;;;;;17.88;16.35;;;22.20;99.90;;;;;;4922542;29;20043;-88
2022/09/23 11:00:02;;;;;;;16.38;15.57;;;22.40;99.90;;;;;;4954521;28;20027;-87
2022/09/23 11:02:44;;;;;;;16.63;15.73;;;22.30;99.90;;;;;;4941224;29;20511;-88
2022/09/23 11:05:44;;;;;;;16.42;15.48;;;22.50;99.90;;;;;;4941730;29;20038;-87
2022/09/23 11:08:17;;;;;;;15.93;14.98;;;22.30;99.90;;;;;;4941686;29;20365;-88
2022/09/23 11:10:57;;;;;;;16.88;15.88;;;22.20;99.90;;;;;;4958698;29;20114;-89
2022/09/23 11:13:52;;;;;;;16.77;15.88;;;22.20;99.90;;;;;;4942094;29;20032;-89
2022/09/23 11:16:42;;;;;;;17.10;16.10;;;22.40;99.90;;;;;;4941649;29;20224;-87
2022/09/23 11:19:35;;;;;;;16.60;15.57;;;22.30;99.90;;;;;;4935297;29;20050;-88
2022/09/23 11:22:14;;;;;;;16.90;16.00;;;22.30;99.90;;;;;;4941583;29;20122;-87
2022/09/23 11:25:20;;;;;;;17.60;16.25;;;22.40;99.90;;;;;;4941391;29;20032;-88
2022/09/23 11:28:16;;;;;;;15.90;15.10;;;22.20;99.90;;;;;;4941392;29;20030;-87
2022/09/23 11:30:59;;;;;;;16.65;15.65;;;22.00;99.90;;;;;;4941422;29;20031;-87
2022/09/23 11:33:41;;;;;;;16.80;15.80;;;21.90;99.90;;;;;;4941266;29;20134;-87
2022/09/23 11:36:22;;;;;;;15.75;14.93;;;22.00;99.90;;;;;;4941251;29;20504;-87
2022/09/23 11:38:54;;;;;;;16.35;15.25;;;22.00;99.90;;;;;;4941330;29;20058;-87
2022/09/23 11:41:33;;;;;;;16.85;15.85;;;21.80;99.90;;;;;;4941283;29;20035;-88
2022/09/23 11:44:19;;;;;;;16.90;15.95;;;21.90;99.90;;;;;;4956655;29;20047;-89
2022/09/23 11:47:20;;;;;;;16.13;15.23;;;22.00;99.90;;;;;;4941158;29;20078;-88
2022/09/23 11:50:02;;;;;;;16.70;15.52;;;22.20;99.90;;;;;;4921784;29;20039;-88
2022/09/23 11:52:43;;;;;;;16.60;15.60;;;22.70;99.90;;;;;;4940897;29;20482;-87
2022/09/23 11:55:32;;;;;;;16.65;15.55;;;22.60;99.90;;;;;;4954130;29;20550;-87
2022/09/23 11:58:17;;;;;;;16.10;15.23;;;22.50;99.90;;;;;;4940752;29;20481;-87
2022/09/23 12:00:53;;;;;;;16.95;15.75;;;22.60;99.90;;;;;;4940748;29;20023;-87
2022/09/23 12:03:42;;;;;;;16.17;15.38;;;22.50;99.90;;;;;;4941157;29;20119;-89
2022/09/23 12:06:25;;;;;;;15.85;15.05;;;22.10;99.90;;;;;;4940624;29;20033;-88
2022/09/23 12:09:00;;;;;;;16.38;15.30;;;21.90;99.90;;;;;;4940552;29;20035;-89
2022/09/23 12:11:45;;;;;;;16.05;15.25;;;21.90;99.90;;;;;;4940347;28;20027;-88
2022/09/23 12:14:30;;;;;;;16.00;15.20;;;22.00;99.90;;;;;;4956444;29;20035;-89
2022/09/23 12:17:17;;;;;;;16.77;15.55;;;21.80;99.90;;;;;;4940547;29;20039;-88
2022/09/23 12:20:08;;;;;;;15.65;14.93;;;22.00;99.90;;;;;;4940345;29;20089;-89
2022/09/23 12:23:13;;;;;;;16.30;15.40;;;22.10;99.90;;;;;;4940395;29;20151;-87
2022/09/23 12:26:05;;;;;;;16.85;15.88;;;21.70;99.90;;;;;;4955750;29;20050;-88
2022/09/23 12:28:40;;;;;;;15.65;14.95;;;21.80;99.90;;;;;;4940230;29;20035;-88
2022/09/23 12:31:17;;;;;;;16.75;15.60;;;21.90;99.90;;;;;;4940089;29;20031;-88
2022/09/23 12:33:52;;;;;;;16.45;15.45;;;21.80;99.90;;;;;;4940146;29;20051;-87
2022/09/23 12:36:33;;;;;;;16.65;15.55;;;21.90;99.90;;;;;;4940178;29;20054;-88
2022/09/23 12:39:25;;;;;;;16.23;15.25;;;22.10;99.90;;;;;;4940031;29;20053;-88
2022/09/23 12:41:58;;;;;;;16.10;15.20;;;22.00;99.90;;;;;;4941263;28;20043;-88
2022/09/23 12:44:42;;;;;;;16.42;15.35;;;21.90;99.90;;;;;;4959231;28;20035;-87
2022/09/23 12:47:36;;;;;;;16.88;15.90;;;21.80;99.90;;;;;;4959534;28;20038;-86
2022/09/23 12:50:53;;;;;;;16.05;15.15;;;21.80;99.90;;;;;;4976309;28;20034;-88
2022/09/23 12:53:35;;;;;;;17.15;15.95;;;21.70;99.90;;;;;;4904097;29;20600;-88
2022/09/23 12:56:17;;;;;;;16.27;15.38;;;21.80;99.90;;;;;;4920170;29;20046;-88
2022/09/23 12:58:43;;;;;;;16.17;15.18;;;22.00;99.90;;;;;;4904314;29;20063;-87
2022/09/23 13:01:17;;;;;;;16.35;15.45;;;22.00;99.90;;;;;;4904285;29;20156;-88
2022/09/23 13:06:41;;;;;;;16.05;15.25;;;21.60;99.90;;;;;;4919904;29;20524;-88
2022/09/23 13:09:32;;;;;;;15.82;14.93;;;21.60;99.90;;;;;;4904435;29;20130;-87
2022/09/23 13:12:02;;;;;;;16.42;15.23;;;21.70;99.90;;;;;;4904533;29;20058;-87
2022/09/23 13:14:32;;;;;;;16.00;15.20;;;21.90;99.90;;;;;;4935454;29;20513;-87
2022/09/23 13:16:59;;;;;;;15.80;15.00;;;21.90;99.90;;;;;;4903985;29;20053;-87
2022/09/23 13:19:26;;;;;;;16.15;14.93;;;21.80;99.90;;;;;;4899930;29;20032;-87
2022/09/23 13:22:10;;;;;;;15.98;15.10;;;21.80;99.90;;;;;;4903707;29;20063;-87
2022/09/23 13:24:59;;;;;;;16.03;15.13;;;21.80;99.90;;;;;;4903401;29;20516;-87
2022/09/23 13:27:35;;;;;;;16.20;15.20;;;21.70;99.90;;;;;;4903933;29;20064;-87
2022/09/23 13:30:19;;;;;;;16.30;15.30;;;21.40;99.90;;;;;;4928723;28;20404;-87
2022/09/23 13:33:06;;;;;;;15.80;14.90;;;21.40;99.90;;;;;;4958447;28;20400;-87
2022/09/23 13:35:43;;;;;;;15.90;15.10;;;21.50;99.90;;;;;;4958402;28;20049;-88
2022/09/23 13:38:31;;;;;;;16.27;15.43;;;21.60;99.90;;;;;;4958484;28;20035;-88
2022/09/23 13:41:24;;;;;;;16.25;15.20;;;21.60;99.90;;;;;;4942129;28;20473;-87
2022/09/23 13:43:58;;;;;;;16.23;15.20;;;21.50;99.90;;;;;;4940861;29;20441;-92
2022/09/23 13:46:29;;;;;;;16.17;15.27;;;21.50;99.90;;;;;;4938812;29;20536;-87
2022/09/23 13:48:57;;;;;;;16.20;15.30;;;21.60;99.90;;;;;;4938960;29;20059;-87
2022/09/23 13:51:29;;;;;;;16.08;15.13;;;21.60;99.90;;;;;;4938921;29;20031;-87
2022/09/23 13:53:58;;;;;;;16.15;15.35;;;21.60;99.90;;;;;;4939013;29;20454;-87
2022/09/23 13:56:28;;;;;;;15.60;14.80;;;21.50;99.90;;;;;;4938950;29;20035;-87
2022/09/23 13:59:25;;;;;;;15.95;15.13;;;21.50;99.90;;;;;;4938971;29;20028;-87
2022/09/23 14:02:04;;;;;;;16.80;15.50;;;21.50;99.90;;;;;;4939455;29;20055;-86
2022/09/23 14:04:31;;;;;;;16.48;15.43;;;21.30;99.90;;;;;;4938978;29;20044;-88